AirNav   Get Bose SoundSport FEEE
 
 659 users online  

89D Kelleys Island Land Field Airport
Kelleys Island, Ohio, USA

GOING TO KELLEYS ISLAND?


FAA INFORMATION EFFECTIVE 18 JULY 2019

Location

FAA Identifier: 89D
Lat/Long: 41-36-11.4550N / 082-41-06.1950W
41-36.190917N / 082-41.103250W
41.6031819 / -82.6850542
(estimated)
Elevation: 598 ft. / 182.3 m (surveyed)
Variation: 07W (2000)
From city: 1 mile NE of KELLEYS ISLAND, OH
Time zone: UTC -4 (UTC -5 during Standard Time)
Zip code: 43438

Airport Operations

Airport use: Open to the public
Activation date: 05/1949
Control tower: no
ARTCC: CLEVELAND CENTER
FSS: CLEVELAND FLIGHT SERVICE STATION
NOTAMs facility: CLE (NOTAM-D service available)
Attendance: UNATNDD
Wind indicator: lighted
Segmented circle: no
Lights: SS-SR
Landing fee: yes

Airport Communications

CTAF: 122.9
WX AWOS-3 at PCW (10 nm SW): 118.775 (419-734-9955)

Nearby radio navigation aids

VOR radial/distance  VOR name  Freq  Var
DJBr307/27.7DRYER VOR/DME113.6005W
YQGr177/39.3WINDSOR VOR/DME113.8006W

 
NDB name  Hdg/Dist  Freq  Var  ID
PORT CLINTON065/9.742307WPCW .--. -.-. .--
GROSSE ILE152/36.541907WRYS .-. -.-- ...
TIFFIN043/38.726905WTII - .. ..

Airport Services

Parking: tiedowns
Airframe service: NONE
Powerplant service: NONE
Bottled oxygen: NONE
Bulk oxygen: NONE

Runway Information

Runway 9/27

Dimensions: 2203 x 50 ft. / 671 x 15 m
Surface: asphalt, in good condition
Runway edge lights: low intensity
RUNWAY 9  RUNWAY 27
Latitude: 41-36.198333N41-36.183500N
Longitude: 082-41.344500W082-40.862000W
Elevation: 598.0 ft.597.0 ft.
Traffic pattern: leftleft
Runway heading: 099 magnetic, 092 true279 magnetic, 272 true
Markings: basic, in good conditionbasic, in good condition
Runway end identifier lights: nono
Touchdown point: yes, no lightsyes, no lights
Obstructions: 53 ft. trees, 400 ft. from runway, 140 ft. right of centerline, 3:1 slope to clear
10 FT RD 12 FT FM RY END 125 FT L&R; 11 FT SIGN 0 FT FM 87 FT RT.
3 ft. fence, 201 ft. from runway, 100 ft. left of centerline
+10 ROAD FM 0 FT TO 92 FT, 0 FT LT TO 125 FT LEFT. +4 FT PROPANE TANK FM 104 FT TO 120 FT, 87 FT LT TO 92 FT LT. +18 FT HOUSE FM 102 FT TO 200 FT, 94 FT LT TO 125 FT LT +12 TREES FM 106 FT TO 136 FT, 80 FT LT

Airport Ownership and Management from official FAA records

Ownership: Publicly-owned
Owner: VILLAGE OF KELLEYS ISLAND
121 ADDISON ST. BOX 469
KELLEYS ISLAND, OH 43438
Phone (419) 746-2535
Manager: RONALD E. EHRBAR
121 ADDISON ST. BOX 469
KELLEYS ISLAND, OH 43438
Phone (419) 504-8789
ADNL CTC: MAYOR@KELLEYSISLAND.US

Airport Operational Statistics

Aircraft based on the field: 3
Single engine airplanes: 3
    
Aircraft operations: avg 70/day *
37% transient general aviation
34% air taxi
29% local general aviation
* for 12-month period ending 10 August 2018

Additional Remarks

DEER ON AND INVOF ARPT.
FOR CD CTC CLEVELAND APCH AT 216-352-2323

Instrument Procedures

There are no published instrument procedures at 89D.

Some nearby airports with instrument procedures:

KPCW - Erie-Ottawa International Airport (10 nm SW)
5A1 - Norwalk-Huron County Airport (22 nm S)
S24 - Sandusky County Regional Airport (24 nm SW)
14G - Fremont Airport (27 nm SW)
KLPR - Lorain County Regional Airport (28 nm SE)
 
Loc | Ops | Rwys | IFR | FBO | Links
Com | Nav | Svcs | Stats | Notes

City of Findlay
 
Area around 89D (Kelleys Island Land Field Airport)
 
Road maps at: MapQuest Bing Google
 
Aerial photo
WARNING: Photo may not be current or correct
Aerial photo of 89D (Kelleys Island Land Field Airport)
Photo by David Newcomer
Photo taken 22-Sep-2017
from 2,000' AGL looking west.

Do you have a better or more recent aerial photo of Kelleys Island Land Field Airport that you would like to share? If so, please send us your photo.

 
Sectional chart

 
Airport distance calculator
Flying to Kelleys Island Land Field Airport? Find the distance to fly.

From to 89D

Sunrise and sunset
Times for 22-Jul-2019
 Local
(UTC-4)
 Zulu
(UTC)
Morning civil twilight05:4409:44
Sunrise06:1710:17
Sunset20:5800:58
Evening civil twilight21:3001:30

Current date and time
Zulu (UTC)  22-Jul-2019 11:20:34
Local (UTC-4)  22-Jul-2019 07:20:34
 
METAR
KPCW 
10nm SW 
221055Z AUTO 03010KT 10SM OVC023 20/18 A2989 RMK AO2
TAF
KCLE 
39nm E 
220858Z 2209/2312 04008KT P6SM VCSH BKN030 TEMPO 2210/2212 6SM -SHRA FM221200 02008KT P6SM OVC050 FM221800 36010KT P6SM BKN100 FM230000 36009KT P6SM SCT100
CYQG 
42nm N 
221014Z 2210/2306 02005KT P6SM SCT020 OVC070 TEMPO 2210/2213 P6SM -SHRA BKN020 FM221400 04008KT P6SM BKN090 FM221600 36008KT P6SM BKN180 FM222100 34012KT P6SM BKN060 FM230000 02012KT P6SM SCT080 RMK FCST BASED ON AUTO OBS. NXT FCST BY 221200Z
KDTW 
48nm NW 
220902Z 2209/2312 36008KT P6SM FEW060 SCT100 BKN250 FM230000 34006KT P6SM SCT250 FM230600 30004KT P6SM SKC
KMFD 
48nm S 
220945Z 2210/2306 01005KT P6SM VCSH OVC010 TEMPO 2210/2212 1/2SM FG OVC004 FM221200 02006KT P6SM OVC020 FM221800 36009KT P6SM OVC040 FM222100 35008KT P6SM BKN100
NOTAMs
Click for the latest NOTAMs
NOTAMs are issued by the DoD/FAA and will open in a separate window not controlled by AirNav.

 

 
 

Would you like to see your business listed on this page?

 If your business provides an interesting product or service to pilots, flight crews, aircraft, or users of the Kelleys Island Land Field Airport, you should consider listing it here.  To start the listing process, click on the button below
 
Add a business
 

Other Pages about Kelleys Island Land Field Airport

Update a link
 
Copyright © AirNav, LLC. All rights reserved. Privacy Policy  Contact